Nds Darwin — 2GRU5 — position and weather

sailwx.info

Track history (hours):
 
Tides and Currents Weather Stations Pressure Air Temp Water Temp Dewpoint Dewpoint Depression Visibility Wind Speed Wind Dir Waves Ship Positions

Nds Darwin

Last reported at 2017-Nov-22 23:38 UTC. Time now 2017-Nov-23 03:30 UTC.
Position N 37°31' W 122°12'.

Length 18 m; draft 1.5 m.

Type: Sailing vessel. MMSI: 235099968.

Date/timePositionNaut miles runAvg speedWind from/ knotsBaromVisibWave heightAir tempDewpointWater temp
2017-Nov-22 23:38N 37°31' W 122°12'1 6.2
2017-Nov-22 23:30N 37°32' W 122°12'2 3.9
2017-Nov-22 23:00N 37°34' W 122°13'3 5.2
2017-Nov-22 22:30N 37°35' W 122°15'4 7.2
2017-Nov-22 22:00N 37°33' W 122°12'2 2.9
2017-Nov-22 21:11N 37°31' W 122°12'  
2017-Nov-20 00:25N 35°50' W 121°41'3 5.5
2017-Nov-19 23:53N 35°48' W 121°39'2 5.6
2017-Nov-19 23:28N 35°46' W 121°37'3 5.8
2017-Nov-19 23:00N 35°43' W 121°36'3 5.6
2017-Nov-19 22:29N 35°41' W 121°33'3 5.4
2017-Nov-19 22:00N 35°39' W 121°31'3 5.6
2017-Nov-19 21:30N 35°37' W 121°29'3 5.9
2017-Nov-19 21:00N 35°35' W 121°27'3 5.7
2017-Nov-19 20:30N 35°32' W 121°25'3 5.6
2017-Nov-19 20:00N 35°30' W 121°23'6 6.0
2017-Nov-19 19:00N 35°25' W 121°20'10 6.1
2017-Nov-19 17:18N 35°16' W 121°14'2 6.5
2017-Nov-19 16:56N 35°13' W 121°12'3 6.8
2017-Nov-19 16:30N 35°11' W 121°11'3 6.9
2017-Nov-19 16:00N 35°08' W 121°08'3 6.6
2017-Nov-19 15:30N 35°05' W 121°06'3 6.5
2017-Nov-19 15:00N 35°02' W 121°05'3 6.5
2017-Nov-19 14:30N 34°59' W 121°03'3 6.7
2017-Nov-19 14:00N 34°56' W 121°01'3 6.5
2017-Nov-19 13:30N 34°53' W 120°60'3 6.2
2017-Nov-19 13:00N 34°51' W 120°58'3 5.8
2017-Nov-19 12:30N 34°48' W 120°56'3 5.6
2017-Nov-19 12:00N 34°46' W 120°55'3 6.0
2017-Nov-19 11:30N 34°43' W 120°52'3 6.2
2017-Nov-19 11:00N 34°41' W 120°50'3 6.3
2017-Nov-19 10:30N 34°39' W 120°47'4 6.6
2017-Nov-19 09:58N 34°36' W 120°45'3 6.2
2017-Nov-19 09:27N 34°33' W 120°42'3 5.9
2017-Nov-19 09:00N 34°31' W 120°40'3 5.6
2017-Nov-19 08:30N 34°29' W 120°38'3 5.3
2017-Nov-19 08:00N 34°27' W 120°36'3 6.3
2017-Nov-19 07:30N 34°25' W 120°33'3 6.7
2017-Nov-19 07:00N 34°24' W 120°29'3 6.7
2017-Nov-19 06:30N 34°23' W 120°25'4 6.9
2017-Nov-19 06:00N 34°22' W 120°21'3 6.6
2017-Nov-19 05:30N 34°22' W 120°17'3 5.7
2017-Nov-19 04:59N 34°21' W 120°14'3 6.1
2017-Nov-19 04:29N 34°21' W 120°10'3 6.4
2017-Nov-19 03:58N 34°20' W 120°06'3 6.5
2017-Nov-19 03:30N 34°20' W 120°02'4 6.7
2017-Nov-19 02:58N 34°20' W 119°58'3 6.8
2017-Nov-19 02:30N 34°19' W 119°54'3 6.8
2017-Nov-19 02:00N 34°19' W 119°50'3 6.5
2017-Nov-19 01:30N 34°18' W 119°46'3 6.5
2017-Nov-19 00:59N 34°18' W 119°42'3 5.3
2017-Nov-19 00:29N 34°17' W 119°39'4 7.5
2017-Nov-18 23:59N 34°17' W 119°35'4 7.7
2017-Nov-18 23:28N 34°16' W 119°30'4 7.4
2017-Nov-18 23:00N 34°16' W 119°26'4 7.3
2017-Nov-18 22:24N 34°15' W 119°21'3 6.5
2017-Nov-18 21:54N 34°14' W 119°17'1 1.7
2017-Nov-18 21:28N 34°15' W 119°16'0 0.1
2017-Nov-18 21:00N 34°15' W 119°16'0 0.0
2017-Nov-18 20:29N 34°15' W 119°16'0 0.0
2017-Nov-18 19:57N 34°15' W 119°16'0 0.0
2017-Nov-18 17:29N 34°15' W 119°16'0 0.0
2017-Nov-18 16:58N 34°15' W 119°16'0 0.0
2017-Nov-18 16:23N 34°15' W 119°16'0 0.0
2017-Nov-18 15:57N 34°15' W 119°16'0 0.0
2017-Nov-18 15:28N 34°15' W 119°16'0 0.0
2017-Nov-18 15:00N 34°15' W 119°16'0 0.0
2017-Nov-18 14:27N 34°15' W 119°16'0 0.0
2017-Nov-18 13:59N 34°15' W 119°16'0 0.0
2017-Nov-18 13:13N 34°15' W 119°16'0 0.0
2017-Nov-18 09:11N 34°15' W 119°16'0 0.0
2017-Nov-18 06:31N 34°15' W 119°16'0 0.0
2017-Nov-18 06:26N 34°15' W 119°16'0 0.0
2017-Nov-18 05:11N 34°15' W 119°16'0 0.2
2017-Nov-18 04:57N 34°15' W 119°16'0 0.1
2017-Nov-18 04:30N 34°15' W 119°16'0 0.0
2017-Nov-18 04:00N 34°15' W 119°16'0 0.0
2017-Nov-18 03:30N 34°15' W 119°16'0 0.0
2017-Nov-18 03:00N 34°15' W 119°16'0 0.0
2017-Nov-18 02:28N 34°15' W 119°16'0 0.0
2017-Nov-18 01:59N 34°15' W 119°16'0 0.1
2017-Nov-18 01:29N 34°15' W 119°16'0 0.0
2017-Nov-18 01:00N 34°15' W 119°16'0 0.1
2017-Nov-18 00:30N 34°15' W 119°16'0 0.0
2017-Nov-17 23:58N 34°15' W 119°16'0 0.0
2017-Nov-17 23:30N 34°15' W 119°16'0 0.1
2017-Nov-17 23:00N 34°15' W 119°16'0 0.6
2017-Nov-17 22:30N 34°15' W 119°16'0 0.0
2017-Nov-17 22:00N 34°15' W 119°16'0 0.6
2017-Nov-17 21:29N 34°15' W 119°16'0 0.1
2017-Nov-17 21:00N 34°15' W 119°16'0 0.0
2017-Nov-17 20:30N 34°15' W 119°16'0 0.0
2017-Nov-17 20:00N 34°15' W 119°16'0 0.0
2017-Nov-17 19:30N 34°15' W 119°16'0 0.0
2017-Nov-17 18:59N 34°15' W 119°16'0 0.0
2017-Nov-17 18:30N 34°15' W 119°16'0 0.0
2017-Nov-17 18:00N 34°15' W 119°16'0 0.0
2017-Nov-17 17:30N 34°15' W 119°16'0 0.0
2017-Nov-17 17:00N 34°15' W 119°16'0 0.0
2017-Nov-17 16:30N 34°15' W 119°16'0 0.0
2017-Nov-17 16:00N 34°15' W 119°16'0 0.0
2017-Nov-17 15:30N 34°15' W 119°16'0 0.0
2017-Nov-17 15:00N 34°15' W 119°16'0 0.0
2017-Nov-17 14:30N 34°15' W 119°16'0 0.0
2017-Nov-17 14:00N 34°15' W 119°16'0 0.0
2017-Nov-17 13:30N 34°15' W 119°16'0 0.0
2017-Nov-17 13:00N 34°15' W 119°16'0 0.0
2017-Nov-17 12:30N 34°15' W 119°16'0 0.0
2017-Nov-17 12:00N 34°15' W 119°16'0 0.1
2017-Nov-17 11:30N 34°15' W 119°16'0 0.0
2017-Nov-17 11:00N 34°15' W 119°16'0 0.0
2017-Nov-17 10:30N 34°15' W 119°16'0 0.0
2017-Nov-17 10:00N 34°15' W 119°16'0 0.0
2017-Nov-17 09:30N 34°15' W 119°16'0 0.1
2017-Nov-17 09:00N 34°15' W 119°16'0 0.1
2017-Nov-17 08:30N 34°15' W 119°16'0 0.0
2017-Nov-17 08:00N 34°15' W 119°16'0 0.0
2017-Nov-17 07:30N 34°15' W 119°16'0 0.0
2017-Nov-17 07:00N 34°15' W 119°16'0 0.0
2017-Nov-17 06:30N 34°15' W 119°16'0 0.0
2017-Nov-17 06:00N 34°15' W 119°16'0 0.1
2017-Nov-17 05:30N 34°15' W 119°16'0 0.1
2017-Nov-17 05:00N 34°15' W 119°16'0 0.1
2017-Nov-17 04:30N 34°15' W 119°16'0 0.1
2017-Nov-17 04:00N 34°15' W 119°16'0 0.1
2017-Nov-17 03:30N 34°15' W 119°16'0 0.0
2017-Nov-17 03:00N 34°15' W 119°16'0 0.1
2017-Nov-17 02:30N 34°15' W 119°16'0 0.0
2017-Nov-17 02:00N 34°15' W 119°16'0 0.1
2017-Nov-17 01:30N 34°15' W 119°16'0 0.1
2017-Nov-17 01:00N 34°15' W 119°16'0 0.1
2017-Nov-17 00:30N 34°15' W 119°16'0 0.0
2017-Nov-17 00:00N 34°15' W 119°16'0 0.0
2017-Nov-16 23:30N 34°15' W 119°16'0 0.1
2017-Nov-16 23:00N 34°15' W 119°16'0 0.1
2017-Nov-16 22:30N 34°15' W 119°16'0 0.1
2017-Nov-16 22:00N 34°15' W 119°16'0 0.0
2017-Nov-16 21:30N 34°15' W 119°16'0 0.1
2017-Nov-16 21:00N 34°15' W 119°16'0 0.0
2017-Nov-16 20:30N 34°15' W 119°16'0 0.0
2017-Nov-16 20:00N 34°15' W 119°16'0 0.0
2017-Nov-16 19:30N 34°15' W 119°16'0 0.0
2017-Nov-16 19:00N 34°15' W 119°16'0 0.0
2017-Nov-16 18:30N 34°15' W 119°16'0 0.0
2017-Nov-16 18:00N 34°15' W 119°16'0 0.0
2017-Nov-16 17:29N 34°15' W 119°16'0 0.0
2017-Nov-16 17:00N 34°15' W 119°16'0 0.0
2017-Nov-16 16:30N 34°15' W 119°16'0 0.0
2017-Nov-16 16:00N 34°15' W 119°16'0 0.0
2017-Nov-16 15:29N 34°15' W 119°16'0 0.0
2017-Nov-16 15:00N 34°15' W 119°16'0 0.0
2017-Nov-16 14:30N 34°15' W 119°16'0 0.0
2017-Nov-16 14:00N 34°15' W 119°16'0 0.0
2017-Nov-16 13:30N 34°15' W 119°16'0 0.0
2017-Nov-16 13:00N 34°15' W 119°16'0 0.0
2017-Nov-16 12:29N 34°15' W 119°16'0 0.0
2017-Nov-16 12:00N 34°15' W 119°16'0 0.0
2017-Nov-16 11:30N 34°15' W 119°16'0 0.0
2017-Nov-16 11:00N 34°15' W 119°16'0 0.1
2017-Nov-16 10:30N 34°15' W 119°16'0 0.1
2017-Nov-16 10:00N 34°15' W 119°16'0 0.0
2017-Nov-16 09:30N 34°15' W 119°16'0 0.0
2017-Nov-16 09:00N 34°15' W 119°16'0 0.0
2017-Nov-16 08:30N 34°15' W 119°16'0 0.1
2017-Nov-16 07:59N 34°15' W 119°16'0 0.0
2017-Nov-16 07:30N 34°15' W 119°16'0 0.0
2017-Nov-16 07:00N 34°15' W 119°16'0 0.0
2017-Nov-16 06:30N 34°15' W 119°16'0 0.0
2017-Nov-16 06:00N 34°15' W 119°16'0 0.1
2017-Nov-16 05:30N 34°15' W 119°16'0 0.1
2017-Nov-16 05:00N 34°15' W 119°16'0 0.1
2017-Nov-16 04:30N 34°15' W 119°16'0 0.1
2017-Nov-16 04:00N 34°15' W 119°16'0 0.1
2017-Nov-16 03:30N 34°15' W 119°16'0 0.0
2017-Nov-16 02:59N 34°15' W 119°16'0 0.1
2017-Nov-16 02:30N 34°15' W 119°16'0 0.1
2017-Nov-16 02:00N 34°15' W 119°16'0 0.1
2017-Nov-16 01:30N 34°15' W 119°16'0 0.0
2017-Nov-16 01:00N 34°15' W 119°16'0 0.1
2017-Nov-16 00:30N 34°15' W 119°16'0 0.1
2017-Nov-15 23:58N 34°15' W 119°16'0 0.1
2017-Nov-15 23:30N 34°15' W 119°16'0 0.0
2017-Nov-15 23:00N 34°15' W 119°16'0 0.0
2017-Nov-15 22:30N 34°15' W 119°16'0 0.1
2017-Nov-15 21:59N 34°15' W 119°16'0 0.1
2017-Nov-15 21:30N 34°15' W 119°16'0 0.0
2017-Nov-15 21:00N 34°15' W 119°16'0 0.0
2017-Nov-15 20:29N 34°15' W 119°16'0 0.0
2017-Nov-15 20:00N 34°15' W 119°16'0 0.0
2017-Nov-15 19:30N 34°15' W 119°16'0 0.0
2017-Nov-15 19:00N 34°15' W 119°16'0 0.0
2017-Nov-15 18:30N 34°15' W 119°16'0 0.0
2017-Nov-15 18:00N 34°15' W 119°16'0 0.0
2017-Nov-15 17:30N 34°15' W 119°16'0 0.0
2017-Nov-15 17:00N 34°15' W 119°16'0 0.0
2017-Nov-15 16:30N 34°15' W 119°16'0 0.0
2017-Nov-15 16:00N 34°15' W 119°16'0 0.0
2017-Nov-15 15:30N 34°15' W 119°16'0 0.0
2017-Nov-15 14:58N 34°15' W 119°16'0 0.0
2017-Nov-15 14:30N 34°15' W 119°16'0 0.0
2017-Nov-15 14:00N 34°15' W 119°16'0 0.0
2017-Nov-15 13:30N 34°15' W 119°16'0 0.0
2017-Nov-15 12:58N 34°15' W 119°16'0 0.0
2017-Nov-15 12:29N 34°15' W 119°16'0 0.0
2017-Nov-15 12:00N 34°15' W 119°16'0 0.1
2017-Nov-15 11:30N 34°15' W 119°16'0 0.0
2017-Nov-15 11:00N 34°15' W 119°16'0 0.0
2017-Nov-15 10:30N 34°15' W 119°16'0 0.1
2017-Nov-15 10:01N 34°15' W 119°16'0 0.1
2017-Nov-15 09:31N 34°15' W 119°16'0 0.0
2017-Nov-15 08:59N 34°15' W 119°16'0 0.1
2017-Nov-15 08:27N 34°15' W 119°16'0 0.1
2017-Nov-15 07:59N 34°15' W 119°16'0 0.0
2017-Nov-15 07:30N 34°15' W 119°16'0 0.0
2017-Nov-15 07:00N 34°15' W 119°16'0 0.0
2017-Nov-15 06:30N 34°15' W 119°16'0 0.1
2017-Nov-15 05:59N 34°15' W 119°16'0 0.0
2017-Nov-15 05:29N 34°15' W 119°16'0 0.1
2017-Nov-15 05:00N 34°15' W 119°16'0 0.1
2017-Nov-15 04:28N 34°15' W 119°16'0 0.1
2017-Nov-15 03:58N 34°15' W 119°16'0 0.0
2017-Nov-15 03:30N 34°15' W 119°16'0 0.1
2017-Nov-15 03:00N 34°15' W 119°16'0 0.0
2017-Nov-15 02:30N 34°15' W 119°16'0 0.0
2017-Nov-15 02:00N 34°15' W 119°16'0 0.0
2017-Nov-15 01:31N 34°15' W 119°16'0 0.1
2017-Nov-15 01:00N 34°15' W 119°16'0 0.0
2017-Nov-15 00:31N 34°15' W 119°16'0 0.0
2017-Nov-15 00:00N 34°15' W 119°16'0 0.1
2017-Nov-14 23:30N 34°15' W 119°16'0 0.0
2017-Nov-14 23:00N 34°15' W 119°16'0 0.1
2017-Nov-14 22:30N 34°15' W 119°16'0 0.0
2017-Nov-14 22:00N 34°15' W 119°16'0 0.1
2017-Nov-14 21:29N 34°15' W 119°16'0 0.0
2017-Nov-14 21:01N 34°15' W 119°16'0 0.0
2017-Nov-14 20:30N 34°15' W 119°16'0 0.0
2017-Nov-14 20:00N 34°15' W 119°16'0 0.0
2017-Nov-14 19:28N 34°15' W 119°16'0 0.0
2017-Nov-14 19:00N 34°15' W 119°16'0 0.0
2017-Nov-14 18:30N 34°15' W 119°16'0 0.0
2017-Nov-14 18:00N 34°15' W 119°16'0 0.0
2017-Nov-14 17:31N 34°15' W 119°16'0 0.0
2017-Nov-14 16:59N 34°15' W 119°16'0 0.0
2017-Nov-14 16:29N 34°15' W 119°16'0 0.0
2017-Nov-14 16:00N 34°15' W 119°16'0 0.0
2017-Nov-14 15:30N 34°15' W 119°16'0 0.0
2017-Nov-14 15:00N 34°15' W 119°16'0 0.0
2017-Nov-14 14:30N 34°15' W 119°16'0 0.0
2017-Nov-14 14:00N 34°15' W 119°16'0 0.0
2017-Nov-14 13:30N 34°15' W 119°16'0 0.0
2017-Nov-14 13:00N 34°15' W 119°16'0 0.0
2017-Nov-14 12:30N 34°15' W 119°16'0 0.0
2017-Nov-14 12:00N 34°15' W 119°16'0 0.0
2017-Nov-14 11:31N 34°15' W 119°16'0 0.1
2017-Nov-14 11:00N 34°15' W 119°16'0 0.0
2017-Nov-14 10:31N 34°15' W 119°16'0 0.0
2017-Nov-14 10:00N 34°15' W 119°16'0 0.0
2017-Nov-14 09:30N 34°15' W 119°16'0 0.0
2017-Nov-14 09:00N 34°15' W 119°16'0 0.1
2017-Nov-14 08:31N 34°15' W 119°16'0 0.1
2017-Nov-14 08:01N 34°15' W 119°16'0 0.0
2017-Nov-14 07:30N 34°15' W 119°16'0 0.0
2017-Nov-14 07:00N 34°15' W 119°16'0 0.0
2017-Nov-14 06:30N 34°15' W 119°16'0 0.0
2017-Nov-14 06:00N 34°15' W 119°16'0 0.0
2017-Nov-14 05:31N 34°15' W 119°16'0 0.0
2017-Nov-14 05:00N 34°15' W 119°16'0 0.0
2017-Nov-14 04:30N 34°15' W 119°16'0 0.0
2017-Nov-14 04:00N 34°15' W 119°16'0 0.0
2017-Nov-14 03:31N 34°15' W 119°16'0 0.1
2017-Nov-14 03:00N 34°15' W 119°16'0 0.1
2017-Nov-14 02:30N 34°15' W 119°16'0 0.0
2017-Nov-14 02:00N 34°15' W 119°16'0 0.0
2017-Nov-14 01:31N 34°15' W 119°16'0 0.0
2017-Nov-14 01:00N 34°15' W 119°16'0 0.0
2017-Nov-14 00:31N 34°15' W 119°16'0 0.0
2017-Nov-14 00:00N 34°15' W 119°16'0 0.1
2017-Nov-13 23:30N 34°15' W 119°16'0 0.0
2017-Nov-13 23:01N 34°15' W 119°16'0 0.1
2017-Nov-13 22:30N 34°15' W 119°16'0 0.0
2017-Nov-13 21:57N 34°15' W 119°16'0 0.0
2017-Nov-13 02:00N 34°15' W 119°16'0 0.1
2017-Nov-13 01:30N 34°15' W 119°16'0 0.0
2017-Nov-13 00:59N 34°15' W 119°16'0 0.1
2017-Nov-13 00:30N 34°15' W 119°16'0 0.0
2017-Nov-12 23:59N 34°15' W 119°16'  
Track history (hours):
 
Tides and Currents Weather Stations Pressure Air Temp Water Temp Dewpoint Dewpoint Depression Visibility Wind Speed Wind Dir Waves Ship Positions

Nds Darwin

Last reported at 2017-Nov-22 23:38 UTC. Time now 2017-Nov-23 03:30 UTC.
Position N 37°31' W 122°12'.

Length 18 m; draft 1.5 m.

Type: Sailing vessel. MMSI: 235099968.

Date/timePositionNaut miles runAvg speedWind from/ knotsBaromVisibWave heightAir tempDewpointWater temp
2017-Nov-22 23:38N 37°31' W 122°12'1 6.2
2017-Nov-22 23:30N 37°32' W 122°12'2 3.9
2017-Nov-22 23:00N 37°34' W 122°13'3 5.2
2017-Nov-22 22:30N 37°35' W 122°15'4 7.2
2017-Nov-22 22:00N 37°33' W 122°12'2 2.9
2017-Nov-22 21:11N 37°31' W 122°12'  
2017-Nov-20 00:25N 35°50' W 121°41'3 5.5
2017-Nov-19 23:53N 35°48' W 121°39'2 5.6
2017-Nov-19 23:28N 35°46' W 121°37'3 5.8
2017-Nov-19 23:00N 35°43' W 121°36'3 5.6
2017-Nov-19 22:29N 35°41' W 121°33'3 5.4
2017-Nov-19 22:00N 35°39' W 121°31'3 5.6
2017-Nov-19 21:30N 35°37' W 121°29'3 5.9
2017-Nov-19 21:00N 35°35' W 121°27'3 5.7
2017-Nov-19 20:30N 35°32' W 121°25'3 5.6
2017-Nov-19 20:00N 35°30' W 121°23'6 6.0
2017-Nov-19 19:00N 35°25' W 121°20'10 6.1
2017-Nov-19 17:18N 35°16' W 121°14'2 6.5
2017-Nov-19 16:56N 35°13' W 121°12'3 6.8
2017-Nov-19 16:30N 35°11' W 121°11'3 6.9
2017-Nov-19 16:00N 35°08' W 121°08'3 6.6
2017-Nov-19 15:30N 35°05' W 121°06'3 6.5
2017-Nov-19 15:00N 35°02' W 121°05'3 6.5
2017-Nov-19 14:30N 34°59' W 121°03'3 6.7
2017-Nov-19 14:00N 34°56' W 121°01'3 6.5
2017-Nov-19 13:30N 34°53' W 120°60'3 6.2
2017-Nov-19 13:00N 34°51' W 120°58'3 5.8
2017-Nov-19 12:30N 34°48' W 120°56'3 5.6
2017-Nov-19 12:00N 34°46' W 120°55'3 6.0
2017-Nov-19 11:30N 34°43' W 120°52'3 6.2
2017-Nov-19 11:00N 34°41' W 120°50'3 6.3
2017-Nov-19 10:30N 34°39' W 120°47'4 6.6
2017-Nov-19 09:58N 34°36' W 120°45'3 6.2
2017-Nov-19 09:27N 34°33' W 120°42'3 5.9
2017-Nov-19 09:00N 34°31' W 120°40'3 5.6
2017-Nov-19 08:30N 34°29' W 120°38'3 5.3
2017-Nov-19 08:00N 34°27' W 120°36'3 6.3
2017-Nov-19 07:30N 34°25' W 120°33'3 6.7
2017-Nov-19 07:00N 34°24' W 120°29'3 6.7
2017-Nov-19 06:30N 34°23' W 120°25'4 6.9
2017-Nov-19 06:00N 34°22' W 120°21'3 6.6
2017-Nov-19 05:30N 34°22' W 120°17'3 5.7
2017-Nov-19 04:59N 34°21' W 120°14'3 6.1
2017-Nov-19 04:29N 34°21' W 120°10'3 6.4
2017-Nov-19 03:58N 34°20' W 120°06'3 6.5
2017-Nov-19 03:30N 34°20' W 120°02'4 6.7
2017-Nov-19 02:58N 34°20' W 119°58'3 6.8
2017-Nov-19 02:30N 34°19' W 119°54'3 6.8
2017-Nov-19 02:00N 34°19' W 119°50'3 6.5
2017-Nov-19 01:30N 34°18' W 119°46'3 6.5
2017-Nov-19 00:59N 34°18' W 119°42'3 5.3
2017-Nov-19 00:29N 34°17' W 119°39'4 7.5
2017-Nov-18 23:59N 34°17' W 119°35'4 7.7
2017-Nov-18 23:28N 34°16' W 119°30'4 7.4
2017-Nov-18 23:00N 34°16' W 119°26'4 7.3
2017-Nov-18 22:24N 34°15' W 119°21'3 6.5
2017-Nov-18 21:54N 34°14' W 119°17'1 1.7
2017-Nov-18 21:28N 34°15' W 119°16'0 0.1
2017-Nov-18 21:00N 34°15' W 119°16'0 0.0
2017-Nov-18 20:29N 34°15' W 119°16'0 0.0
2017-Nov-18 19:57N 34°15' W 119°16'0 0.0
2017-Nov-18 17:29N 34°15' W 119°16'0 0.0
2017-Nov-18 16:58N 34°15' W 119°16'0 0.0
2017-Nov-18 16:23N 34°15' W 119°16'0 0.0
2017-Nov-18 15:57N 34°15' W 119°16'0 0.0
2017-Nov-18 15:28N 34°15' W 119°16'0 0.0
2017-Nov-18 15:00N 34°15' W 119°16'0 0.0
2017-Nov-18 14:27N 34°15' W 119°16'0 0.0
2017-Nov-18 13:59N 34°15' W 119°16'0 0.0
2017-Nov-18 13:13N 34°15' W 119°16'0 0.0
2017-Nov-18 09:11N 34°15' W 119°16'0 0.0
2017-Nov-18 06:31N 34°15' W 119°16'0 0.0
2017-Nov-18 06:26N 34°15' W 119°16'0 0.0
2017-Nov-18 05:11N 34°15' W 119°16'0 0.2
2017-Nov-18 04:57N 34°15' W 119°16'0 0.1
2017-Nov-18 04:30N 34°15' W 119°16'0 0.0
2017-Nov-18 04:00N 34°15' W 119°16'0 0.0
2017-Nov-18 03:30N 34°15' W 119°16'0 0.0
2017-Nov-18 03:00N 34°15' W 119°16'0 0.0
2017-Nov-18 02:28N 34°15' W 119°16'0 0.0
2017-Nov-18 01:59N 34°15' W 119°16'0 0.1
2017-Nov-18 01:29N 34°15' W 119°16'0 0.0
2017-Nov-18 01:00N 34°15' W 119°16'0 0.1
2017-Nov-18 00:30N 34°15' W 119°16'0 0.0
2017-Nov-17 23:58N 34°15' W 119°16'0 0.0
2017-Nov-17 23:30N 34°15' W 119°16'0 0.1
2017-Nov-17 23:00N 34°15' W 119°16'0 0.6
2017-Nov-17 22:30N 34°15' W 119°16'0 0.0
2017-Nov-17 22:00N 34°15' W 119°16'0 0.6
2017-Nov-17 21:29N 34°15' W 119°16'0 0.1
2017-Nov-17 21:00N 34°15' W 119°16'0 0.0
2017-Nov-17 20:30N 34°15' W 119°16'0 0.0
2017-Nov-17 20:00N 34°15' W 119°16'0 0.0
2017-Nov-17 19:30N 34°15' W 119°16'0 0.0
2017-Nov-17 18:59N 34°15' W 119°16'0 0.0
2017-Nov-17 18:30N 34°15' W 119°16'0 0.0
2017-Nov-17 18:00N 34°15' W 119°16'0 0.0
2017-Nov-17 17:30N 34°15' W 119°16'0 0.0
2017-Nov-17 17:00N 34°15' W 119°16'0 0.0
2017-Nov-17 16:30N 34°15' W 119°16'0 0.0
2017-Nov-17 16:00N 34°15' W 119°16'0 0.0
2017-Nov-17 15:30N 34°15' W 119°16'0 0.0
2017-Nov-17 15:00N 34°15' W 119°16'0 0.0
2017-Nov-17 14:30N 34°15' W 119°16'0 0.0
2017-Nov-17 14:00N 34°15' W 119°16'0 0.0
2017-Nov-17 13:30N 34°15' W 119°16'0 0.0
2017-Nov-17 13:00N 34°15' W 119°16'0 0.0
2017-Nov-17 12:30N 34°15' W 119°16'0 0.0
2017-Nov-17 12:00N 34°15' W 119°16'0 0.1
2017-Nov-17 11:30N 34°15' W 119°16'0 0.0
2017-Nov-17 11:00N 34°15' W 119°16'0 0.0
2017-Nov-17 10:30N 34°15' W 119°16'0 0.0
2017-Nov-17 10:00N 34°15' W 119°16'0 0.0
2017-Nov-17 09:30N 34°15' W 119°16'0 0.1
2017-Nov-17 09:00N 34°15' W 119°16'0 0.1
2017-Nov-17 08:30N 34°15' W 119°16'0 0.0
2017-Nov-17 08:00N 34°15' W 119°16'0 0.0
2017-Nov-17 07:30N 34°15' W 119°16'0 0.0
2017-Nov-17 07:00N 34°15' W 119°16'0 0.0
2017-Nov-17 06:30N 34°15' W 119°16'0 0.0
2017-Nov-17 06:00N 34°15' W 119°16'0 0.1
2017-Nov-17 05:30N 34°15' W 119°16'0 0.1
2017-Nov-17 05:00N 34°15' W 119°16'0 0.1
2017-Nov-17 04:30N 34°15' W 119°16'0 0.1
2017-Nov-17 04:00N 34°15' W 119°16'0 0.1
2017-Nov-17 03:30N 34°15' W 119°16'0 0.0
2017-Nov-17 03:00N 34°15' W 119°16'0 0.1
2017-Nov-17 02:30N 34°15' W 119°16'0 0.0
2017-Nov-17 02:00N 34°15' W 119°16'0 0.1
2017-Nov-17 01:30N 34°15' W 119°16'0 0.1
2017-Nov-17 01:00N 34°15' W 119°16'0 0.1
2017-Nov-17 00:30N 34°15' W 119°16'0 0.0
2017-Nov-17 00:00N 34°15' W 119°16'0 0.0
2017-Nov-16 23:30N 34°15' W 119°16'0 0.1
2017-Nov-16 23:00N 34°15' W 119°16'0 0.1
2017-Nov-16 22:30N 34°15' W 119°16'0 0.1
2017-Nov-16 22:00N 34°15' W 119°16'0 0.0
2017-Nov-16 21:30N 34°15' W 119°16'0 0.1
2017-Nov-16 21:00N 34°15' W 119°16'0 0.0
2017-Nov-16 20:30N 34°15' W 119°16'0 0.0
2017-Nov-16 20:00N 34°15' W 119°16'0 0.0
2017-Nov-16 19:30N 34°15' W 119°16'0 0.0
2017-Nov-16 19:00N 34°15' W 119°16'0 0.0
2017-Nov-16 18:30N 34°15' W 119°16'0 0.0
2017-Nov-16 18:00N 34°15' W 119°16'0 0.0
2017-Nov-16 17:29N 34°15' W 119°16'0 0.0
2017-Nov-16 17:00N 34°15' W 119°16'0 0.0
2017-Nov-16 16:30N 34°15' W 119°16'0 0.0
2017-Nov-16 16:00N 34°15' W 119°16'0 0.0
2017-Nov-16 15:29N 34°15' W 119°16'0 0.0
2017-Nov-16 15:00N 34°15' W 119°16'0 0.0
2017-Nov-16 14:30N 34°15' W 119°16'0 0.0
2017-Nov-16 14:00N 34°15' W 119°16'0 0.0
2017-Nov-16 13:30N 34°15' W 119°16'0 0.0
2017-Nov-16 13:00N 34°15' W 119°16'0 0.0
2017-Nov-16 12:29N 34°15' W 119°16'0 0.0
2017-Nov-16 12:00N 34°15' W 119°16'0 0.0
2017-Nov-16 11:30N 34°15' W 119°16'0 0.0
2017-Nov-16 11:00N 34°15' W 119°16'0 0.1
2017-Nov-16 10:30N 34°15' W 119°16'0 0.1
2017-Nov-16 10:00N 34°15' W 119°16'0 0.0
2017-Nov-16 09:30N 34°15' W 119°16'0 0.0
2017-Nov-16 09:00N 34°15' W 119°16'0 0.0
2017-Nov-16 08:30N 34°15' W 119°16'0 0.1
2017-Nov-16 07:59N 34°15' W 119°16'0 0.0
2017-Nov-16 07:30N 34°15' W 119°16'0 0.0
2017-Nov-16 07:00N 34°15' W 119°16'0 0.0
2017-Nov-16 06:30N 34°15' W 119°16'0 0.0
2017-Nov-16 06:00N 34°15' W 119°16'0 0.1
2017-Nov-16 05:30N 34°15' W 119°16'0 0.1
2017-Nov-16 05:00N 34°15' W 119°16'0 0.1
2017-Nov-16 04:30N 34°15' W 119°16'0 0.1
2017-Nov-16 04:00N 34°15' W 119°16'0 0.1
2017-Nov-16 03:30N 34°15' W 119°16'0 0.0
2017-Nov-16 02:59N 34°15' W 119°16'0 0.1
2017-Nov-16 02:30N 34°15' W 119°16'0 0.1
2017-Nov-16 02:00N 34°15' W 119°16'0 0.1
2017-Nov-16 01:30N 34°15' W 119°16'0 0.0
2017-Nov-16 01:00N 34°15' W 119°16'0 0.1
2017-Nov-16 00:30N 34°15' W 119°16'0 0.1
2017-Nov-15 23:58N 34°15' W 119°16'0 0.1
2017-Nov-15 23:30N 34°15' W 119°16'0 0.0
2017-Nov-15 23:00N 34°15' W 119°16'0 0.0
2017-Nov-15 22:30N 34°15' W 119°16'0 0.1
2017-Nov-15 21:59N 34°15' W 119°16'0 0.1
2017-Nov-15 21:30N 34°15' W 119°16'0 0.0
2017-Nov-15 21:00N 34°15' W 119°16'0 0.0
2017-Nov-15 20:29N 34°15' W 119°16'0 0.0
2017-Nov-15 20:00N 34°15' W 119°16'0 0.0
2017-Nov-15 19:30N 34°15' W 119°16'0 0.0
2017-Nov-15 19:00N 34°15' W 119°16'0 0.0
2017-Nov-15 18:30N 34°15' W 119°16'0 0.0
2017-Nov-15 18:00N 34°15' W 119°16'0 0.0
2017-Nov-15 17:30N 34°15' W 119°16'0 0.0
2017-Nov-15 17:00N 34°15' W 119°16'0 0.0
2017-Nov-15 16:30N 34°15' W 119°16'0 0.0
2017-Nov-15 16:00N 34°15' W 119°16'0 0.0
2017-Nov-15 15:30N 34°15' W 119°16'0 0.0
2017-Nov-15 14:58N 34°15' W 119°16'0 0.0
2017-Nov-15 14:30N 34°15' W 119°16'0 0.0
2017-Nov-15 14:00N 34°15' W 119°16'0 0.0
2017-Nov-15 13:30N 34°15' W 119°16'0 0.0
2017-Nov-15 12:58N 34°15' W 119°16'0 0.0
2017-Nov-15 12:29N 34°15' W 119°16'0 0.0
2017-Nov-15 12:00N 34°15' W 119°16'0 0.1
2017-Nov-15 11:30N 34°15' W 119°16'0 0.0
2017-Nov-15 11:00N 34°15' W 119°16'0 0.0
2017-Nov-15 10:30N 34°15' W 119°16'0 0.1
2017-Nov-15 10:01N 34°15' W 119°16'0 0.1
2017-Nov-15 09:31N 34°15' W 119°16'0 0.0
2017-Nov-15 08:59N 34°15' W 119°16'0 0.1
2017-Nov-15 08:27N 34°15' W 119°16'0 0.1
2017-Nov-15 07:59N 34°15' W 119°16'0 0.0
2017-Nov-15 07:30N 34°15' W 119°16'0 0.0
2017-Nov-15 07:00N 34°15' W 119°16'0 0.0
2017-Nov-15 06:30N 34°15' W 119°16'0 0.1
2017-Nov-15 05:59N 34°15' W 119°16'0 0.0
2017-Nov-15 05:29N 34°15' W 119°16'0 0.1
2017-Nov-15 05:00N 34°15' W 119°16'0 0.1
2017-Nov-15 04:28N 34°15' W 119°16'0 0.1
2017-Nov-15 03:58N 34°15' W 119°16'0 0.0
2017-Nov-15 03:30N 34°15' W 119°16'0 0.1
2017-Nov-15 03:00N 34°15' W 119°16'0 0.0
2017-Nov-15 02:30N 34°15' W 119°16'0 0.0
2017-Nov-15 02:00N 34°15' W 119°16'0 0.0
2017-Nov-15 01:31N 34°15' W 119°16'0 0.1
2017-Nov-15 01:00N 34°15' W 119°16'0 0.0
2017-Nov-15 00:31N 34°15' W 119°16'0 0.0
2017-Nov-15 00:00N 34°15' W 119°16'0 0.1
2017-Nov-14 23:30N 34°15' W 119°16'0 0.0
2017-Nov-14 23:00N 34°15' W 119°16'0 0.1
2017-Nov-14 22:30N 34°15' W 119°16'0 0.0
2017-Nov-14 22:00N 34°15' W 119°16'0 0.1
2017-Nov-14 21:29N 34°15' W 119°16'0 0.0
2017-Nov-14 21:01N 34°15' W 119°16'0 0.0
2017-Nov-14 20:30N 34°15' W 119°16'0 0.0
2017-Nov-14 20:00N 34°15' W 119°16'0 0.0
2017-Nov-14 19:28N 34°15' W 119°16'0 0.0
2017-Nov-14 19:00N 34°15' W 119°16'0 0.0
2017-Nov-14 18:30N 34°15' W 119°16'0 0.0
2017-Nov-14 18:00N 34°15' W 119°16'0 0.0
2017-Nov-14 17:31N 34°15' W 119°16'0 0.0
2017-Nov-14 16:59N 34°15' W 119°16'0 0.0
2017-Nov-14 16:29N 34°15' W 119°16'0 0.0
2017-Nov-14 16:00N 34°15' W 119°16'0 0.0
2017-Nov-14 15:30N 34°15' W 119°16'0 0.0
2017-Nov-14 15:00N 34°15' W 119°16'0 0.0
2017-Nov-14 14:30N 34°15' W 119°16'0 0.0
2017-Nov-14 14:00N 34°15' W 119°16'0 0.0
2017-Nov-14 13:30N 34°15' W 119°16'0 0.0
2017-Nov-14 13:00N 34°15' W 119°16'0 0.0
2017-Nov-14 12:30N 34°15' W 119°16'0 0.0
2017-Nov-14 12:00N 34°15' W 119°16'0 0.0
2017-Nov-14 11:31N 34°15' W 119°16'0 0.1
2017-Nov-14 11:00N 34°15' W 119°16'0 0.0
2017-Nov-14 10:31N 34°15' W 119°16'0 0.0
2017-Nov-14 10:00N 34°15' W 119°16'0 0.0
2017-Nov-14 09:30N 34°15' W 119°16'0 0.0
2017-Nov-14 09:00N 34°15' W 119°16'0 0.1
2017-Nov-14 08:31N 34°15' W 119°16'0 0.1
2017-Nov-14 08:01N 34°15' W 119°16'0 0.0
2017-Nov-14 07:30N 34°15' W 119°16'0 0.0
2017-Nov-14 07:00N 34°15' W 119°16'0 0.0
2017-Nov-14 06:30N 34°15' W 119°16'0 0.0
2017-Nov-14 06:00N 34°15' W 119°16'0 0.0
2017-Nov-14 05:31N 34°15' W 119°16'0 0.0
2017-Nov-14 05:00N 34°15' W 119°16'0 0.0
2017-Nov-14 04:30N 34°15' W 119°16'0 0.0
2017-Nov-14 04:00N 34°15' W 119°16'0 0.0
2017-Nov-14 03:31N 34°15' W 119°16'0 0.1
2017-Nov-14 03:00N 34°15' W 119°16'0 0.1
2017-Nov-14 02:30N 34°15' W 119°16'0 0.0
2017-Nov-14 02:00N 34°15' W 119°16'0 0.0
2017-Nov-14 01:31N 34°15' W 119°16'0 0.0
2017-Nov-14 01:00N 34°15' W 119°16'0 0.0
2017-Nov-14 00:31N 34°15' W 119°16'0 0.0
2017-Nov-14 00:00N 34°15' W 119°16'0 0.1
2017-Nov-13 23:30N 34°15' W 119°16'0 0.0
2017-Nov-13 23:01N 34°15' W 119°16'0 0.1
2017-Nov-13 22:30N 34°15' W 119°16'0 0.0
2017-Nov-13 21:57N 34°15' W 119°16'0 0.0
2017-Nov-13 02:00N 34°15' W 119°16'0 0.1
2017-Nov-13 01:30N 34°15' W 119°16'0 0.0
2017-Nov-13 00:59N 34°15' W 119°16'0 0.1
2017-Nov-13 00:30N 34°15' W 119°16'0 0.0
2017-Nov-12 23:59N 34°15' W 119°16'  

Dump ship's entire track history